createdAt,value
2019-05-29T00:01:40.267Z,101334.70
2019-05-29T00:04:08.799Z,101339.77
2019-05-29T00:06:38.701Z,101343.08
2019-05-29T00:09:08.092Z,101347.55
2019-05-29T00:11:36.640Z,101348.69
2019-05-29T00:14:18.752Z,101349.31
2019-05-29T00:16:35.358Z,101356.09
2019-05-29T00:19:03.844Z,101355.61
2019-05-29T00:21:32.292Z,101361.69
2019-05-29T00:24:00.826Z,101361.69
2019-05-29T00:26:29.286Z,101362.52
2019-05-29T00:28:57.773Z,101367.77
2019-05-29T00:31:26.345Z,101370.30
2019-05-29T00:33:54.845Z,101368.78
2019-05-29T00:36:23.719Z,101367.11
2019-05-29T00:38:52.209Z,101367.30
2019-05-29T00:41:20.673Z,101376.75
2019-05-29T00:43:49.176Z,101367.98
2019-05-29T00:46:17.684Z,101376.80
2019-05-29T00:48:46.159Z,101384.90
2019-05-29T00:51:15.105Z,101386.95
2019-05-29T00:53:43.830Z,101395.58
2019-05-29T00:56:12.686Z,101395.41
2019-05-29T00:58:41.585Z,101400.35
2019-05-29T01:01:11.365Z,101399.48
2019-05-29T01:03:39.851Z,101406.91
2019-05-29T01:06:09.822Z,101407.13
2019-05-29T01:08:38.414Z,101411.86
2019-05-29T01:11:06.895Z,101413.41
2019-05-29T01:13:35.628Z,101415.77
2019-05-29T01:16:04.103Z,101415.45
2019-05-29T01:18:32.586Z,101416.80
2019-05-29T01:21:01.083Z,101416.98
2019-05-29T01:23:29.538Z,101413.77
2019-05-29T01:25:58.008Z,101413.92
2019-05-29T01:28:26.461Z,101413.27
2019-05-29T01:30:55.286Z,101410.75
2019-05-29T01:33:25.013Z,101408.73
2019-05-29T01:35:53.623Z,101413.45
2019-05-29T01:38:23.391Z,101420.56
2019-05-29T01:40:51.939Z,101422.27
2019-05-29T01:43:21.426Z,101417.52
2019-05-29T01:45:50.086Z,101424.47
2019-05-29T01:48:19.583Z,101422.94
2019-05-29T01:50:48.097Z,101430.55
2019-05-29T01:53:17.655Z,101430.70
2019-05-29T01:55:46.448Z,101436.12
2019-05-29T01:58:15.653Z,101441.21
2019-05-29T02:00:44.180Z,101436.31
2019-05-29T02:03:12.652Z,101441.56
2019-05-29T02:05:41.128Z,101442.23
2019-05-29T02:08:09.872Z,101443.75
2019-05-29T02:10:38.345Z,101444.77
2019-05-29T02:13:07.134Z,101452.05
2019-05-29T02:15:35.834Z,101456.27
2019-05-29T02:18:04.361Z,101452.73
2019-05-29T02:20:32.869Z,101454.75
2019-05-29T02:23:01.305Z,101456.44
2019-05-29T02:25:29.792Z,101459.16
2019-05-29T02:27:58.254Z,101466.25
2019-05-29T02:30:30.348Z,101470.65
2019-05-29T02:32:57.255Z,101465.25
2019-05-29T02:35:28.746Z,101478.42
2019-05-29T02:37:55.944Z,101482.16
2019-05-29T02:40:26.354Z,101483.52
2019-05-29T02:42:54.635Z,101482.66
2019-05-29T02:45:26.172Z,101488.73
2019-05-29T02:47:53.288Z,101493.66
2019-05-29T02:50:22.313Z,101496.84
2019-05-29T02:52:52.095Z,101495.68
2019-05-29T02:55:20.819Z,101494.00
2019-05-29T02:57:50.715Z,101492.28
2019-05-29T03:00:19.195Z,101498.56
2019-05-29T03:02:47.632Z,101497.86
2019-05-29T03:05:16.130Z,101499.20
2019-05-29T03:07:44.606Z,101511.05
2019-05-29T03:10:14.147Z,101512.43
2019-05-29T03:12:42.591Z,101521.05
2019-05-29T03:15:11.359Z,101518.31
2019-05-29T03:17:39.831Z,101524.08
2019-05-29T03:20:08.326Z,101524.92
2019-05-29T03:22:36.793Z,101527.45
2019-05-29T03:25:05.489Z,101524.24
2019-05-29T03:27:34.287Z,101529.48
2019-05-29T03:30:02.740Z,101527.28
2019-05-29T03:32:37.742Z,101538.62
2019-05-29T03:35:01.724Z,101542.83
2019-05-29T03:37:30.505Z,101551.14
2019-05-29T03:39:59.440Z,101553.48
2019-05-29T03:42:28.344Z,101548.76
2019-05-29T03:44:57.130Z,101559.89
2019-05-29T03:47:26.942Z,101551.81
2019-05-29T03:49:55.922Z,101561.42
2019-05-29T03:52:26.148Z,101558.72
2019-05-29T03:54:54.588Z,101564.12
2019-05-29T03:57:23.074Z,101567.18
2019-05-29T03:59:51.545Z,101563.13
2019-05-29T04:02:20.031Z,101565.17
2019-05-29T04:04:48.776Z,101565.67
2019-05-29T04:07:17.221Z,101572.12
2019-05-29T04:09:45.709Z,101572.09
2019-05-29T04:12:18.802Z,101577.33
2019-05-29T04:14:44.399Z,101579.03
2019-05-29T04:17:13.519Z,101581.59
2019-05-29T04:19:42.397Z,101589.55
2019-05-29T04:22:10.948Z,101596.45
2019-05-29T04:24:40.052Z,101601.71
2019-05-29T04:27:09.595Z,101600.18
2019-05-29T04:29:38.475Z,101599.87
2019-05-29T04:32:06.923Z,101610.06
2019-05-29T04:34:36.297Z,101607.66
2019-05-29T04:37:07.405Z,101614.77
2019-05-29T04:39:36.929Z,101622.22
2019-05-29T04:42:05.480Z,101620.21
2019-05-29T04:44:36.304Z,101621.55
2019-05-29T04:47:10.940Z,101632.20
2019-05-29T04:49:36.196Z,101634.58
2019-05-29T04:52:04.628Z,101639.83
2019-05-29T04:54:33.439Z,101637.27
2019-05-29T04:57:01.971Z,101647.60
2019-05-29T04:59:30.882Z,101647.08
2019-05-29T05:02:00.057Z,101647.79
2019-05-29T05:04:29.105Z,101657.09
2019-05-29T05:06:57.756Z,101657.77
2019-05-29T05:09:26.183Z,101666.73
2019-05-29T05:11:54.692Z,101663.84
2019-05-29T05:14:23.179Z,101662.83
2019-05-29T05:16:51.672Z,101672.65
2019-05-29T05:19:20.169Z,101674.66
2019-05-29T05:21:48.647Z,101679.75
2019-05-29T05:24:17.138Z,101681.94
2019-05-29T05:26:45.616Z,101691.25
2019-05-29T05:29:14.180Z,101695.16
2019-05-29T05:31:42.636Z,101690.73
2019-05-29T05:34:11.629Z,101698.69
2019-05-29T05:36:40.994Z,101693.27
2019-05-29T05:39:09.587Z,101700.03
2019-05-29T05:41:38.987Z,101703.20
2019-05-29T05:44:07.795Z,101703.03
2019-05-29T05:46:37.144Z,101708.11
2019-05-29T05:49:06.054Z,101718.62
2019-05-29T05:51:38.163Z,101721.67
2019-05-29T05:54:04.711Z,101721.52
2019-05-29T05:56:33.698Z,101724.23
2019-05-29T05:59:02.141Z,101731.82
2019-05-29T06:01:31.754Z,101735.86
2019-05-29T06:04:00.393Z,101735.84
2019-05-29T06:06:28.867Z,101738.16
2019-05-29T06:08:57.379Z,101739.33
2019-05-29T06:11:25.847Z,101744.42
2019-05-29T06:13:54.345Z,101748.18
2019-05-29T06:16:22.889Z,101748.02
2019-05-29T06:18:52.646Z,101746.30
2019-05-29T06:21:21.078Z,101755.13
2019-05-29T06:23:49.559Z,101752.39
2019-05-29T06:26:18.065Z,101760.51
2019-05-29T06:28:46.522Z,101763.52
2019-05-29T06:31:14.994Z,101766.70
2019-05-29T06:33:44.078Z,101771.79
2019-05-29T06:36:12.865Z,101762.66
2019-05-29T06:38:42.182Z,101774.72
2019-05-29T06:41:10.728Z,101764.92
2019-05-29T06:43:39.903Z,101767.66
2019-05-29T06:46:08.442Z,101769.15
2019-05-29T06:48:44.839Z,101766.22
2019-05-29T06:51:07.411Z,101766.01
2019-05-29T06:53:37.618Z,101771.95
2019-05-29T06:56:06.305Z,101775.83
2019-05-29T06:58:35.896Z,101783.13
2019-05-29T07:01:04.450Z,101790.95
2019-05-29T07:03:32.923Z,101786.22
2019-05-29T07:06:01.518Z,101788.11
2019-05-29T07:08:38.914Z,101793.70
2019-05-29T07:11:00.225Z,101794.12
2019-05-29T07:13:28.701Z,101793.81
2019-05-29T07:15:57.199Z,101802.97
2019-05-29T07:18:25.696Z,101807.72
2019-05-29T07:20:54.166Z,101812.44
2019-05-29T07:23:22.654Z,101811.03
2019-05-29T07:25:51.465Z,101808.11
2019-05-29T07:28:19.939Z,101817.55
2019-05-29T07:30:59.421Z,101807.16
2019-05-29T07:33:19.290Z,101813.77
2019-05-29T07:35:47.849Z,101821.03
2019-05-29T07:38:16.387Z,101829.63
2019-05-29T07:40:47.569Z,101829.67
2019-05-29T07:43:15.166Z,101832.66
2019-05-29T07:45:44.067Z,101830.10
2019-05-29T07:48:12.577Z,101830.30
2019-05-29T07:50:42.126Z,101837.25
2019-05-29T07:53:10.655Z,101841.56
2019-05-29T07:55:40.385Z,101843.72
2019-05-29T07:58:08.913Z,101842.10
2019-05-29T08:00:59.798Z,101836.01
2019-05-29T08:03:07.844Z,101841.53
2019-05-29T08:05:36.318Z,101840.94
2019-05-29T08:08:04.819Z,101843.92
2019-05-29T08:10:33.317Z,101841.91
2019-05-29T08:13:01.796Z,101845.36
2019-05-29T08:15:30.325Z,101848.62
2019-05-29T08:17:58.801Z,101848.42
2019-05-29T08:20:27.787Z,101850.92
2019-05-29T08:22:56.276Z,101854.53
2019-05-29T08:25:24.763Z,101861.83
2019-05-29T08:27:53.241Z,101860.16
2019-05-29T08:30:21.736Z,101863.70
2019-05-29T08:32:51.265Z,101868.13
2019-05-29T08:35:19.789Z,101866.46
2019-05-29T08:37:49.135Z,101870.92
2019-05-29T08:40:17.711Z,101866.53
2019-05-29T08:42:47.315Z,101871.58
2019-05-29T08:45:15.952Z,101865.38
2019-05-29T08:47:45.503Z,101870.37
2019-05-29T08:50:18.730Z,101869.31
2019-05-29T08:52:45.868Z,101878.19
2019-05-29T08:55:14.517Z,101873.86
2019-05-29T08:57:44.242Z,101876.17
2019-05-29T09:00:12.881Z,101881.55
2019-05-29T09:02:42.585Z,101880.41
2019-05-29T09:05:11.603Z,101882.27
2019-05-29T09:07:40.336Z,101890.56
2019-05-29T09:10:08.816Z,101896.02
2019-05-29T09:12:37.400Z,101897.06
2019-05-29T09:15:06.317Z,101899.09
2019-05-29T09:17:34.771Z,101897.37
2019-05-29T09:20:03.285Z,101899.34
2019-05-29T09:22:31.748Z,101898.95
2019-05-29T09:25:00.459Z,101898.70
2019-05-29T09:27:28.956Z,101902.33
2019-05-29T09:29:57.731Z,101896.92
2019-05-29T09:32:48.748Z,101900.66
2019-05-29T09:34:56.390Z,101894.78
2019-05-29T09:37:25.139Z,101896.14
2019-05-29T09:39:53.653Z,101897.67
2019-05-29T09:42:23.595Z,101889.70
2019-05-29T09:44:52.289Z,101900.62
2019-05-29T09:47:22.166Z,101901.77
2019-05-29T09:49:50.861Z,101901.63
2019-05-29T09:52:19.319Z,101895.23
2019-05-29T09:54:47.810Z,101895.63
2019-05-29T09:57:16.264Z,101894.30
2019-05-29T09:59:44.752Z,101889.03
2019-05-29T10:02:13.239Z,101916.62
2019-05-29T10:04:41.697Z,101902.88
2019-05-29T10:07:10.224Z,101908.67
2019-05-29T10:09:38.707Z,101911.91
2019-05-29T10:12:07.211Z,101914.48
2019-05-29T10:14:35.684Z,101908.36
2019-05-29T10:17:11.003Z,101913.36
2019-05-29T10:19:34.396Z,101908.82
2019-05-29T10:22:04.014Z,101915.28
2019-05-29T10:24:33.061Z,101918.75
2019-05-29T10:27:03.114Z,101925.57
2019-05-29T10:29:32.039Z,101925.63
2019-05-29T10:32:00.512Z,101924.21
2019-05-29T10:34:29.027Z,101930.60
2019-05-29T10:36:57.752Z,101925.55
2019-05-29T10:39:26.490Z,101930.73
2019-05-29T10:41:55.198Z,101929.13
2019-05-29T10:44:23.688Z,101932.37
2019-05-29T10:46:54.312Z,101934.40
2019-05-29T10:49:22.390Z,101937.27
2019-05-29T10:52:05.775Z,101934.53
2019-05-29T10:54:21.073Z,101939.17
2019-05-29T10:56:50.822Z,101937.11
2019-05-29T10:59:19.447Z,101940.19
2019-05-29T11:01:49.180Z,101906.22
2019-05-29T11:04:18.064Z,101938.31
2019-05-29T11:06:47.893Z,101932.16
2019-05-29T11:09:16.569Z,101934.23
2019-05-29T11:11:46.224Z,101931.66
2019-05-29T11:14:14.844Z,101936.61
2019-05-29T11:16:43.724Z,101932.27
2019-05-29T11:19:12.200Z,101931.42
2019-05-29T11:21:41.017Z,101936.55
2019-05-29T11:24:09.432Z,101934.11
2019-05-29T11:26:37.921Z,101931.29
2019-05-29T11:29:06.497Z,101933.94
2019-05-29T11:31:34.976Z,101941.05
2019-05-29T11:34:03.468Z,101939.46
2019-05-29T11:36:32.173Z,101940.58
2019-05-29T11:39:05.417Z,101939.80
2019-05-29T11:41:30.906Z,101939.05
2019-05-29T11:43:59.413Z,101942.04
2019-05-29T11:46:27.901Z,101950.22
2019-05-29T11:48:57.346Z,101939.68
2019-05-29T11:51:25.856Z,101935.48
2019-05-29T11:53:55.438Z,101941.27
2019-05-29T11:56:24.029Z,101934.56
2019-05-29T11:58:52.765Z,101937.50
2019-05-29T12:01:21.381Z,101940.05
2019-05-29T12:04:13.170Z,101942.33
2019-05-29T12:06:20.160Z,101948.64
2019-05-29T12:08:48.604Z,101940.04
2019-05-29T12:11:17.395Z,101948.48
2019-05-29T12:13:45.975Z,101945.86
2019-05-29T12:16:14.469Z,101942.97
2019-05-29T12:18:43.221Z,101939.13
2019-05-29T12:21:11.683Z,101940.38
2019-05-29T12:23:40.192Z,101942.13
2019-05-29T12:26:21.740Z,101941.94
2019-05-29T12:28:39.342Z,101946.93
2019-05-29T12:31:07.791Z,101948.05
2019-05-29T12:33:36.279Z,101947.57
2019-05-29T12:36:05.019Z,101945.45
2019-05-29T12:38:33.494Z,101945.82
2019-05-29T12:41:01.982Z,101946.44
2019-05-29T12:43:30.447Z,101945.21
2019-05-29T12:46:00.140Z,101947.45
2019-05-29T12:48:28.702Z,101945.69
2019-05-29T12:50:58.222Z,101936.77
2019-05-29T12:53:30.957Z,101934.11
2019-05-29T12:55:58.314Z,101937.37
2019-05-29T12:58:26.992Z,101937.97
2019-05-29T13:00:56.402Z,101944.64
2019-05-29T13:03:25.031Z,101942.89
2019-05-29T13:05:54.168Z,101938.25
2019-05-29T13:08:22.719Z,101931.09
2019-05-29T13:10:51.186Z,101930.76
2019-05-29T13:13:20.179Z,101931.24
2019-05-29T13:15:48.741Z,101927.77
2019-05-29T13:18:17.462Z,101911.58
2019-05-29T13:20:46.003Z,101940.72
2019-05-29T13:23:14.460Z,101924.80
2019-05-29T13:25:42.943Z,101927.42
2019-05-29T13:28:11.455Z,101931.59
2019-05-29T13:30:39.991Z,101933.55
2019-05-29T13:33:09.112Z,101936.31
2019-05-29T13:35:37.746Z,101932.34
2019-05-29T13:38:07.346Z,101924.73
2019-05-29T13:40:35.906Z,101921.28
2019-05-29T13:43:11.433Z,101920.22
2019-05-29T13:45:34.595Z,101927.52
2019-05-29T13:48:03.298Z,101929.77
2019-05-29T13:50:31.828Z,101929.48
2019-05-29T13:53:01.307Z,101940.95
2019-05-29T13:55:30.080Z,101932.97
2019-05-29T13:57:59.534Z,101937.92
2019-05-29T14:00:33.953Z,101934.45
2019-05-29T14:02:58.508Z,101934.34
2019-05-29T14:05:27.460Z,101930.09
2019-05-29T14:07:55.937Z,101926.97
2019-05-29T14:10:24.456Z,101943.74
2019-05-29T14:12:52.906Z,101934.78
2019-05-29T14:15:21.688Z,101934.14
2019-05-29T14:17:50.207Z,101927.73
2019-05-29T14:20:18.687Z,101928.28
2019-05-29T14:22:47.184Z,101928.34
2019-05-29T14:25:15.769Z,101936.63
2019-05-29T14:27:44.279Z,101937.92
2019-05-29T14:30:14.097Z,101939.11
2019-05-29T14:32:42.734Z,101937.72
2019-05-29T14:35:13.128Z,101946.20
2019-05-29T14:37:41.433Z,101945.62
2019-05-29T14:40:09.979Z,101942.67
2019-05-29T14:42:38.767Z,101944.38
2019-05-29T14:45:08.392Z,101941.13
2019-05-29T14:47:36.868Z,101944.09
2019-05-29T14:50:06.444Z,101937.53
2019-05-29T14:52:35.028Z,101943.46
2019-05-29T14:55:04.546Z,101941.52
2019-05-29T14:57:33.076Z,101940.69
2019-05-29T15:00:06.745Z,101936.59
2019-05-29T15:02:32.166Z,101933.44
2019-05-29T15:05:00.667Z,101929.09
2019-05-29T15:07:29.119Z,101927.83
2019-05-29T15:09:57.615Z,101926.02
2019-05-29T15:12:26.107Z,101939.34
2019-05-29T15:14:54.571Z,101931.70
2019-05-29T15:17:23.054Z,101940.66
2019-05-29T15:19:51.534Z,101936.45
2019-05-29T15:22:19.984Z,101939.16
2019-05-29T15:25:01.534Z,101937.41
2019-05-29T15:27:18.691Z,101951.97
2019-05-29T15:29:47.134Z,101943.40
2019-05-29T15:32:16.688Z,101945.67
2019-05-29T15:34:45.478Z,101941.75
2019-05-29T15:37:16.982Z,101943.91
2019-05-29T15:39:44.137Z,101943.69
2019-05-29T15:42:12.897Z,101935.19
2019-05-29T15:44:41.466Z,101939.59
2019-05-29T15:47:10.902Z,101944.92
2019-05-29T15:49:39.406Z,101946.66
2019-05-29T15:52:08.991Z,101956.16
2019-05-29T15:54:37.448Z,101963.36
2019-05-29T15:57:06.913Z,101955.79
2019-05-29T15:59:36.147Z,101952.05
2019-05-29T16:02:04.635Z,101954.52
2019-05-29T16:04:33.131Z,101945.20
2019-05-29T16:07:01.635Z,101944.16
2019-05-29T16:09:30.103Z,101944.88
2019-05-29T16:11:58.575Z,101940.61
2019-05-29T16:14:27.048Z,101939.33
2019-05-29T16:16:55.527Z,101943.23
2019-05-29T16:19:24.020Z,101941.38
2019-05-29T16:21:52.765Z,101938.63
2019-05-29T16:24:23.030Z,101940.05
2019-05-29T16:26:51.593Z,101937.30
2019-05-29T16:29:20.061Z,101941.70
2019-05-29T16:31:48.565Z,101943.17
2019-05-29T16:34:18.937Z,101942.13
2019-05-29T16:36:47.298Z,101936.27
2019-05-29T16:39:15.903Z,101934.36
2019-05-29T16:41:44.310Z,101936.28
2019-05-29T16:44:13.974Z,101935.77
2019-05-29T16:46:42.705Z,101933.41
2019-05-29T16:49:12.444Z,101933.84
2019-05-29T16:51:42.067Z,101943.80
2019-05-29T16:54:11.196Z,101937.89
2019-05-29T16:56:39.986Z,101931.91
2019-05-29T16:59:08.498Z,101930.44
2019-05-29T17:01:36.989Z,101933.30
2019-05-29T17:04:05.485Z,101935.96
2019-05-29T17:06:33.973Z,101934.30
2019-05-29T17:09:02.480Z,101938.91
2019-05-29T17:11:30.938Z,101941.38
2019-05-29T17:13:59.456Z,101937.58
2019-05-29T17:16:27.984Z,101934.48
2019-05-29T17:18:56.477Z,101928.30
2019-05-29T17:21:25.049Z,101933.00
2019-05-29T17:23:53.497Z,101940.59
2019-05-29T17:26:22.765Z,101935.97
2019-05-29T17:28:51.280Z,101936.73
2019-05-29T17:31:20.823Z,101940.27
2019-05-29T17:33:49.370Z,101935.21
2019-05-29T17:36:18.936Z,101932.89
2019-05-29T17:38:47.491Z,101928.92
2019-05-29T17:41:17.187Z,101935.55
2019-05-29T17:43:46.036Z,101934.31
2019-05-29T17:46:15.370Z,101938.30
2019-05-29T17:48:43.808Z,101936.02
2019-05-29T17:51:12.304Z,101942.02
2019-05-29T17:53:40.789Z,101939.32
2019-05-29T17:56:09.263Z,101940.80
2019-05-29T17:58:37.768Z,101937.33
2019-05-29T18:01:06.268Z,101944.63
2019-05-29T18:03:34.740Z,101938.84
2019-05-29T18:06:03.325Z,101943.20
2019-05-29T18:08:31.811Z,101934.25
2019-05-29T18:11:00.593Z,101933.83
2019-05-29T18:13:29.214Z,101933.62
2019-05-29T18:15:57.714Z,101931.94
2019-05-29T18:18:26.189Z,101935.58
2019-05-29T18:20:54.676Z,101936.83
2019-05-29T18:23:24.229Z,101938.61
2019-05-29T18:25:52.850Z,101933.09
2019-05-29T18:28:22.046Z,101936.78
2019-05-29T18:30:50.594Z,101933.36
2019-05-29T18:33:19.074Z,101933.09
2019-05-29T18:35:47.552Z,101937.91
2019-05-29T18:38:16.046Z,101937.86
2019-05-29T18:40:44.563Z,101937.20
2019-05-29T18:43:13.044Z,101940.81
2019-05-29T18:45:41.592Z,101934.19
2019-05-29T18:48:10.083Z,101941.36
2019-05-29T18:50:38.566Z,101951.06
2019-05-29T18:53:07.328Z,101955.19
2019-05-29T18:55:35.787Z,101956.27
2019-05-29T18:58:04.299Z,101954.95
2019-05-29T19:00:32.773Z,101953.29
2019-05-29T19:03:01.247Z,101956.36
2019-05-29T19:05:29.807Z,101947.66
2019-05-29T19:07:58.277Z,101950.72
2019-05-29T19:10:27.740Z,101960.09
2019-05-29T19:12:56.226Z,101959.03
2019-05-29T19:15:25.900Z,101951.67
2019-05-29T19:17:54.476Z,101956.29
2019-05-29T19:20:24.108Z,101952.13
2019-05-29T19:22:52.722Z,101949.31
2019-05-29T19:25:22.548Z,101953.47
2019-05-29T19:27:51.332Z,101965.48
2019-05-29T19:30:20.035Z,101957.22
2019-05-29T19:32:48.544Z,101963.83
2019-05-29T19:35:17.032Z,101967.88
2019-05-29T19:37:45.820Z,101973.77
2019-05-29T19:40:14.589Z,101964.52
2019-05-29T19:42:43.071Z,101964.63
2019-05-29T19:45:11.663Z,101968.44
2019-05-29T19:47:40.154Z,101971.75
2019-05-29T19:50:11.330Z,101977.59
2019-05-29T19:52:39.659Z,101975.28
2019-05-29T19:55:08.133Z,101977.72
2019-05-29T19:57:53.940Z,101981.41
2019-05-29T20:00:07.162Z,101982.63
2019-05-29T20:02:36.743Z,101982.33
2019-05-29T20:05:06.122Z,101979.11
2019-05-29T20:07:35.285Z,101978.45
2019-05-29T20:10:04.032Z,101983.20
2019-05-29T20:12:33.750Z,101986.41
2019-05-29T20:15:02.255Z,101984.69
2019-05-29T20:17:31.983Z,101991.30
2019-05-29T20:20:00.601Z,101988.07
2019-05-29T20:22:29.087Z,101993.01
2019-05-29T20:24:57.893Z,101984.84
2019-05-29T20:27:26.728Z,101984.48
2019-05-29T20:29:55.213Z,101987.92
2019-05-29T20:32:23.747Z,101989.45
2019-05-29T20:34:52.206Z,101993.58
2019-05-29T20:37:24.892Z,101989.86
2019-05-29T20:39:53.361Z,101987.53
2019-05-29T20:42:22.103Z,101993.84
2019-05-29T20:44:50.586Z,101989.61
2019-05-29T20:47:19.077Z,101991.36
2019-05-29T20:49:47.777Z,101990.36
2019-05-29T20:52:16.241Z,101988.19
2019-05-29T20:54:44.729Z,101985.31
2019-05-29T20:57:13.206Z,101985.52
2019-05-29T20:59:42.263Z,101986.42
2019-05-29T21:02:10.942Z,101990.50
2019-05-29T21:04:40.613Z,101991.71
2019-05-29T21:07:09.293Z,101995.95
2019-05-29T21:09:39.108Z,101992.11
2019-05-29T21:12:07.611Z,101991.61
2019-05-29T21:14:36.117Z,101960.48
2019-05-29T21:17:04.587Z,101992.00
2019-05-29T21:19:34.025Z,101989.47
2019-05-29T21:22:02.556Z,101986.75
2019-05-29T21:24:31.027Z,101984.34
2019-05-29T21:26:59.500Z,101989.78
2019-05-29T21:29:27.986Z,101993.05
2019-05-29T21:31:56.474Z,101992.04
2019-05-29T21:34:24.959Z,101992.08
2019-05-29T21:36:53.469Z,101991.23
2019-05-29T21:39:22.021Z,101988.66
2019-05-29T21:41:50.810Z,101986.25
2019-05-29T21:44:19.639Z,101990.52
2019-05-29T21:46:48.343Z,101983.91
2019-05-29T21:49:16.832Z,101986.98
2019-05-29T21:51:45.756Z,101990.06
2019-05-29T21:54:14.487Z,101986.02
2019-05-29T21:56:43.749Z,101981.59
2019-05-29T21:59:12.237Z,101980.07
2019-05-29T22:01:41.962Z,101983.33
2019-05-29T22:04:10.557Z,101983.99
2019-05-29T22:06:39.036Z,101977.73
2019-05-29T22:09:12.969Z,101981.97
2019-05-29T22:11:41.492Z,101978.78
2019-05-29T22:14:10.249Z,101979.80
2019-05-29T22:16:38.714Z,101985.74
2019-05-29T22:19:07.480Z,101984.73
2019-05-29T22:21:35.984Z,101984.73
2019-05-29T22:24:04.476Z,101986.25
2019-05-29T22:26:33.156Z,101983.69
2019-05-29T22:29:17.342Z,101981.63
2019-05-29T22:31:33.000Z,101980.06
2019-05-29T22:34:01.978Z,101973.81
2019-05-29T22:36:32.790Z,101973.50
2019-05-29T22:39:01.791Z,101977.58
2019-05-29T22:41:31.979Z,101976.56
2019-05-29T22:44:02.494Z,101974.04
2019-05-29T22:46:31.732Z,101972.68
2019-05-29T22:49:00.202Z,101969.42
2019-05-29T22:51:28.673Z,101959.94
2019-05-29T22:53:57.900Z,101961.33
2019-05-29T22:56:26.428Z,101963.73
2019-05-29T22:58:56.016Z,101964.12
2019-05-29T23:01:24.547Z,101958.84
2019-05-29T23:03:54.144Z,101959.34
2019-05-29T23:06:22.642Z,101955.92
2019-05-29T23:08:52.149Z,101954.88
2019-05-29T23:11:20.908Z,101956.94
2019-05-29T23:13:49.650Z,101956.78
2019-05-29T23:16:18.144Z,101954.28
2019-05-29T23:18:46.628Z,101950.55
2019-05-29T23:21:15.143Z,101950.05
2019-05-29T23:23:43.643Z,101940.91
2019-05-29T23:26:12.440Z,101945.84
2019-05-29T23:28:40.995Z,101938.00
2019-05-29T23:31:09.475Z,101938.70
2019-05-29T23:33:37.974Z,101934.64
2019-05-29T23:36:06.465Z,101933.29
2019-05-29T23:38:34.956Z,101935.84
2019-05-29T23:41:03.747Z,101930.25
2019-05-29T23:43:32.318Z,101924.84
2019-05-29T23:46:02.406Z,101937.80
2019-05-29T23:48:31.196Z,101929.96
2019-05-29T23:50:59.662Z,101929.27
2019-05-29T23:53:28.158Z,101930.47
2019-05-29T23:55:57.689Z,101932.68
2019-05-29T23:58:26.261Z,101935.08
